sensor_id;sensor_type;location;lat;lon;timestamp;P1;durP1;ratioP1;P2;durP2;ratioP2
44664;SDS011;30382;48.802;9.388;2022-07-23T00:01:21;5.70;;;5.20;;
44664;SDS011;30382;48.802;9.388;2022-07-23T00:04:05;6.53;;;6.03;;
44664;SDS011;30382;48.802;9.388;2022-07-23T00:06:49;5.67;;;5.27;;
44664;SDS011;30382;48.802;9.388;2022-07-23T00:09:34;6.73;;;6.23;;
44664;SDS011;30382;48.802;9.388;2022-07-23T00:12:18;6.80;;;5.40;;
44664;SDS011;30382;48.802;9.388;2022-07-23T00:15:03;6.30;;;5.80;;
44664;SDS011;30382;48.802;9.388;2022-07-23T00:17:47;6.43;;;5.90;;
44664;SDS011;30382;48.802;9.388;2022-07-23T00:20:32;5.70;;;5.20;;
44664;SDS011;30382;48.802;9.388;2022-07-23T00:23:16;7.20;;;6.50;;
44664;SDS011;30382;48.802;9.388;2022-07-23T00:26:01;5.20;;;4.83;;
44664;SDS011;30382;48.802;9.388;2022-07-23T00:28:45;5.63;;;4.90;;
44664;SDS011;30382;48.802;9.388;2022-07-23T00:31:29;5.43;;;5.03;;
44664;SDS011;30382;48.802;9.388;2022-07-23T00:34:13;4.63;;;4.23;;
44664;SDS011;30382;48.802;9.388;2022-07-23T00:36:58;5.67;;;5.17;;
44664;SDS011;30382;48.802;9.388;2022-07-23T00:39:42;5.20;;;4.70;;
44664;SDS011;30382;48.802;9.388;2022-07-23T00:42:26;4.97;;;4.57;;
44664;SDS011;30382;48.802;9.388;2022-07-23T00:45:11;5.10;;;4.70;;
44664;SDS011;30382;48.802;9.388;2022-07-23T00:47:55;4.90;;;4.50;;
44664;SDS011;30382;48.802;9.388;2022-07-23T00:50:39;5.20;;;4.80;;
44664;SDS011;30382;48.802;9.388;2022-07-23T00:53:24;4.97;;;4.47;;
44664;SDS011;30382;48.802;9.388;2022-07-23T00:56:08;5.30;;;5.00;;
44664;SDS011;30382;48.802;9.388;2022-07-23T00:58:52;4.50;;;4.20;;
44664;SDS011;30382;48.802;9.388;2022-07-23T01:01:36;5.20;;;4.80;;
44664;SDS011;30382;48.802;9.388;2022-07-23T01:04:21;4.47;;;4.07;;
44664;SDS011;30382;48.802;9.388;2022-07-23T01:07:05;4.67;;;4.27;;
44664;SDS011;30382;48.802;9.388;2022-07-23T01:09:51;4.83;;;4.43;;
44664;SDS011;30382;48.802;9.388;2022-07-23T01:12:35;3.87;;;3.67;;
44664;SDS011;30382;48.802;9.388;2022-07-23T01:15:19;4.13;;;3.87;;
44664;SDS011;30382;48.802;9.388;2022-07-23T01:18:04;4.57;;;4.23;;
44664;SDS011;30382;48.802;9.388;2022-07-23T01:20:49;4.40;;;4.10;;
44664;SDS011;30382;48.802;9.388;2022-07-23T01:23:34;4.87;;;4.37;;
44664;SDS011;30382;48.802;9.388;2022-07-23T01:26:18;4.10;;;3.80;;
44664;SDS011;30382;48.802;9.388;2022-07-23T01:29:02;3.63;;;3.43;;
44664;SDS011;30382;48.802;9.388;2022-07-23T01:31:47;3.87;;;3.63;;
44664;SDS011;30382;48.802;9.388;2022-07-23T01:34:32;4.60;;;4.30;;
44664;SDS011;30382;48.802;9.388;2022-07-23T01:37:16;4.43;;;4.13;;
44664;SDS011;30382;48.802;9.388;2022-07-23T01:40:01;7.27;;;4.50;;
44664;SDS011;30382;48.802;9.388;2022-07-23T01:42:46;4.33;;;3.93;;
44664;SDS011;30382;48.802;9.388;2022-07-23T01:45:31;4.13;;;3.83;;
44664;SDS011;30382;48.802;9.388;2022-07-23T01:48:16;4.23;;;3.90;;
44664;SDS011;30382;48.802;9.388;2022-07-23T01:51:13;4.17;;;3.87;;
44664;SDS011;30382;48.802;9.388;2022-07-23T01:54:01;4.40;;;4.00;;
44664;SDS011;30382;48.802;9.388;2022-07-23T01:56:46;4.50;;;4.20;;
44664;SDS011;30382;48.802;9.388;2022-07-23T01:59:30;4.80;;;4.40;;
44664;SDS011;30382;48.802;9.388;2022-07-23T02:02:15;4.37;;;4.07;;
44664;SDS011;30382;48.802;9.388;2022-07-23T02:04:59;4.47;;;4.17;;
44664;SDS011;30382;48.802;9.388;2022-07-23T02:07:44;5.00;;;4.60;;
44664;SDS011;30382;48.802;9.388;2022-07-23T02:10:28;4.80;;;4.50;;
44664;SDS011;30382;48.802;9.388;2022-07-23T02:13:13;4.73;;;4.37;;
44664;SDS011;30382;48.802;9.388;2022-07-23T02:15:57;4.13;;;3.83;;
44664;SDS011;30382;48.802;9.388;2022-07-23T02:18:41;7.40;;;5.33;;
44664;SDS011;30382;48.802;9.388;2022-07-23T02:21:26;5.13;;;4.67;;
44664;SDS011;30382;48.802;9.388;2022-07-23T02:24:11;5.10;;;4.70;;
44664;SDS011;30382;48.802;9.388;2022-07-23T02:26:56;5.43;;;4.93;;
44664;SDS011;30382;48.802;9.388;2022-07-23T02:29:40;4.70;;;4.30;;
44664;SDS011;30382;48.802;9.388;2022-07-23T02:32:25;5.03;;;4.73;;
44664;SDS011;30382;48.802;9.388;2022-07-23T02:35:09;4.83;;;4.43;;
44664;SDS011;30382;48.802;9.388;2022-07-23T02:37:53;5.30;;;4.93;;
44664;SDS011;30382;48.802;9.388;2022-07-23T02:40:39;5.00;;;4.70;;
44664;SDS011;30382;48.802;9.388;2022-07-23T02:43:24;5.07;;;4.70;;
44664;SDS011;30382;48.802;9.388;2022-07-23T02:46:08;5.87;;;5.37;;
44664;SDS011;30382;48.802;9.388;2022-07-23T02:48:53;5.90;;;5.37;;
44664;SDS011;30382;48.802;9.388;2022-07-23T02:51:37;5.00;;;4.60;;
44664;SDS011;30382;48.802;9.388;2022-07-23T02:54:24;5.07;;;4.67;;
44664;SDS011;30382;48.802;9.388;2022-07-23T02:57:09;6.03;;;5.53;;
44664;SDS011;30382;48.802;9.388;2022-07-23T02:59:54;5.80;;;5.40;;
44664;SDS011;30382;48.802;9.388;2022-07-23T03:02:38;8.10;;;5.50;;
44664;SDS011;30382;48.802;9.388;2022-07-23T03:05:23;5.50;;;5.10;;
44664;SDS011;30382;48.802;9.388;2022-07-23T03:08:07;5.27;;;4.87;;
44664;SDS011;30382;48.802;9.388;2022-07-23T03:10:55;5.13;;;4.67;;
44664;SDS011;30382;48.802;9.388;2022-07-23T03:13:39;5.53;;;5.03;;
44664;SDS011;30382;48.802;9.388;2022-07-23T03:16:24;6.57;;;4.80;;
44664;SDS011;30382;48.802;9.388;2022-07-23T03:19:08;5.70;;;5.30;;
44664;SDS011;30382;48.802;9.388;2022-07-23T03:21:53;5.80;;;4.83;;
44664;SDS011;30382;48.802;9.388;2022-07-23T03:24:37;5.30;;;4.90;;
44664;SDS011;30382;48.802;9.388;2022-07-23T03:27:46;5.60;;;5.20;;
44664;SDS011;30382;48.802;9.388;2022-07-23T03:30:31;4.97;;;4.67;;
44664;SDS011;30382;48.802;9.388;2022-07-23T03:33:16;4.93;;;4.47;;
44664;SDS011;30382;48.802;9.388;2022-07-23T03:36:03;6.03;;;5.50;;
44664;SDS011;30382;48.802;9.388;2022-07-23T03:38:50;5.80;;;5.30;;
44664;SDS011;30382;48.802;9.388;2022-07-23T03:41:35;5.60;;;5.20;;
44664;SDS011;30382;48.802;9.388;2022-07-23T03:44:19;5.50;;;5.10;;
44664;SDS011;30382;48.802;9.388;2022-07-23T03:47:04;5.33;;;4.93;;
44664;SDS011;30382;48.802;9.388;2022-07-23T03:49:49;5.73;;;5.33;;
44664;SDS011;30382;48.802;9.388;2022-07-23T03:52:33;5.20;;;4.80;;
44664;SDS011;30382;48.802;9.388;2022-07-23T03:55:17;4.70;;;4.40;;
44664;SDS011;30382;48.802;9.388;2022-07-23T03:58:01;5.73;;;5.30;;
44664;SDS011;30382;48.802;9.388;2022-07-23T04:00:46;5.37;;;4.87;;
44664;SDS011;30382;48.802;9.388;2022-07-23T04:03:30;6.90;;;6.20;;
44664;SDS011;30382;48.802;9.388;2022-07-23T04:06:15;6.90;;;5.33;;
44664;SDS011;30382;48.802;9.388;2022-07-23T04:08:59;6.40;;;5.20;;
44664;SDS011;30382;48.802;9.388;2022-07-23T04:11:44;6.50;;;5.87;;
44664;SDS011;30382;48.802;9.388;2022-07-23T04:14:28;5.67;;;5.17;;
44664;SDS011;30382;48.802;9.388;2022-07-23T04:17:12;6.17;;;5.57;;
44664;SDS011;30382;48.802;9.388;2022-07-23T04:19:56;5.13;;;4.73;;
44664;SDS011;30382;48.802;9.388;2022-07-23T04:22:43;5.40;;;5.00;;
44664;SDS011;30382;48.802;9.388;2022-07-23T04:25:27;6.37;;;5.43;;
44664;SDS011;30382;48.802;9.388;2022-07-23T04:28:11;6.77;;;6.23;;
44664;SDS011;30382;48.802;9.388;2022-07-23T04:30:56;6.80;;;5.40;;
44664;SDS011;30382;48.802;9.388;2022-07-23T04:33:41;6.20;;;5.70;;
44664;SDS011;30382;48.802;9.388;2022-07-23T04:36:26;5.60;;;5.10;;
44664;SDS011;30382;48.802;9.388;2022-07-23T04:39:10;6.73;;;6.13;;
44664;SDS011;30382;48.802;9.388;2022-07-23T04:41:54;5.90;;;5.30;;
44664;SDS011;30382;48.802;9.388;2022-07-23T04:44:38;6.57;;;6.00;;
44664;SDS011;30382;48.802;9.388;2022-07-23T04:47:24;5.50;;;5.10;;
44664;SDS011;30382;48.802;9.388;2022-07-23T04:50:08;7.13;;;5.57;;
44664;SDS011;30382;48.802;9.388;2022-07-23T04:52:54;6.13;;;5.63;;
44664;SDS011;30382;48.802;9.388;2022-07-23T04:55:40;7.30;;;6.17;;
44664;SDS011;30382;48.802;9.388;2022-07-23T04:58:24;7.47;;;6.80;;
44664;SDS011;30382;48.802;9.388;2022-07-23T05:01:09;6.87;;;6.27;;
44664;SDS011;30382;48.802;9.388;2022-07-23T05:03:55;6.70;;;6.20;;
44664;SDS011;30382;48.802;9.388;2022-07-23T05:06:41;5.70;;;5.30;;
44664;SDS011;30382;48.802;9.388;2022-07-23T05:09:26;6.13;;;5.63;;
44664;SDS011;30382;48.802;9.388;2022-07-23T05:12:10;6.77;;;6.17;;
44664;SDS011;30382;48.802;9.388;2022-07-23T05:14:55;5.23;;;4.83;;
44664;SDS011;30382;48.802;9.388;2022-07-23T05:17:39;5.80;;;5.33;;
44664;SDS011;30382;48.802;9.388;2022-07-23T05:20:29;6.40;;;5.90;;
44664;SDS011;30382;48.802;9.388;2022-07-23T05:23:13;6.73;;;6.07;;
44664;SDS011;30382;48.802;9.388;2022-07-23T05:25:58;6.73;;;6.03;;
44664;SDS011;30382;48.802;9.388;2022-07-23T05:28:43;6.50;;;6.00;;
44664;SDS011;30382;48.802;9.388;2022-07-23T05:31:28;6.40;;;5.90;;
44664;SDS011;30382;48.802;9.388;2022-07-23T05:34:12;6.83;;;6.33;;
44664;SDS011;30382;48.802;9.388;2022-07-23T05:36:57;7.13;;;6.50;;
44664;SDS011;30382;48.802;9.388;2022-07-23T05:39:41;7.67;;;7.00;;
44664;SDS011;30382;48.802;9.388;2022-07-23T05:42:25;7.27;;;6.77;;
44664;SDS011;30382;48.802;9.388;2022-07-23T05:45:10;7.33;;;6.70;;
44664;SDS011;30382;48.802;9.388;2022-07-23T05:47:57;7.83;;;7.23;;
44664;SDS011;30382;48.802;9.388;2022-07-23T05:50:51;8.47;;;7.57;;
44664;SDS011;30382;48.802;9.388;2022-07-23T05:53:49;8.50;;;7.60;;
44664;SDS011;30382;48.802;9.388;2022-07-23T05:56:37;7.67;;;6.93;;
44664;SDS011;30382;48.802;9.388;2022-07-23T05:59:22;7.13;;;6.47;;
44664;SDS011;30382;48.802;9.388;2022-07-23T06:02:06;6.87;;;6.37;;
44664;SDS011;30382;48.802;9.388;2022-07-23T06:04:50;7.37;;;6.83;;
44664;SDS011;30382;48.802;9.388;2022-07-23T06:07:46;8.00;;;6.37;;
44664;SDS011;30382;48.802;9.388;2022-07-23T06:10:31;6.73;;;6.23;;
44664;SDS011;30382;48.802;9.388;2022-07-23T06:13:17;7.03;;;6.53;;
44664;SDS011;30382;48.802;9.388;2022-07-23T06:16:01;6.63;;;6.13;;
44664;SDS011;30382;48.802;9.388;2022-07-23T06:18:48;7.17;;;6.53;;
44664;SDS011;30382;48.802;9.388;2022-07-23T06:21:32;6.97;;;6.37;;
44664;SDS011;30382;48.802;9.388;2022-07-23T06:24:17;7.83;;;7.07;;
44664;SDS011;30382;48.802;9.388;2022-07-23T06:27:01;7.60;;;6.57;;
44664;SDS011;30382;48.802;9.388;2022-07-23T06:29:45;6.63;;;6.13;;
44664;SDS011;30382;48.802;9.388;2022-07-23T06:32:30;8.93;;;7.10;;
44664;SDS011;30382;48.802;9.388;2022-07-23T06:35:17;7.07;;;6.57;;
44664;SDS011;30382;48.802;9.388;2022-07-23T06:38:04;6.90;;;6.40;;
44664;SDS011;30382;48.802;9.388;2022-07-23T06:40:48;7.90;;;7.10;;
44664;SDS011;30382;48.802;9.388;2022-07-23T06:43:32;7.83;;;7.33;;
44664;SDS011;30382;48.802;9.388;2022-07-23T06:46:16;7.97;;;7.17;;
44664;SDS011;30382;48.802;9.388;2022-07-23T06:49:01;7.00;;;6.40;;
44664;SDS011;30382;48.802;9.388;2022-07-23T06:51:46;6.50;;;6.10;;
44664;SDS011;30382;48.802;9.388;2022-07-23T06:54:31;7.40;;;6.80;;
44664;SDS011;30382;48.802;9.388;2022-07-23T06:57:15;7.00;;;6.50;;
44664;SDS011;30382;48.802;9.388;2022-07-23T07:00:01;6.87;;;6.20;;
44664;SDS011;30382;48.802;9.388;2022-07-23T07:02:46;7.67;;;6.97;;
44664;SDS011;30382;48.802;9.388;2022-07-23T07:05:30;7.07;;;6.47;;
44664;SDS011;30382;48.802;9.388;2022-07-23T07:08:15;6.33;;;5.80;;
44664;SDS011;30382;48.802;9.388;2022-07-23T07:10:59;8.47;;;7.70;;
44664;SDS011;30382;48.802;9.388;2022-07-23T07:13:44;8.00;;;7.27;;
44664;SDS011;30382;48.802;9.388;2022-07-23T07:16:28;7.40;;;6.80;;
44664;SDS011;30382;48.802;9.388;2022-07-23T07:19:12;10.20;;;9.03;;
44664;SDS011;30382;48.802;9.388;2022-07-23T07:21:57;7.60;;;7.00;;
44664;SDS011;30382;48.802;9.388;2022-07-23T07:24:41;7.93;;;7.13;;
44664;SDS011;30382;48.802;9.388;2022-07-23T07:27:25;8.70;;;7.67;;
44664;SDS011;30382;48.802;9.388;2022-07-23T07:30:09;8.10;;;7.30;;
44664;SDS011;30382;48.802;9.388;2022-07-23T07:32:53;7.97;;;7.17;;
44664;SDS011;30382;48.802;9.388;2022-07-23T07:35:38;8.07;;;7.47;;
44664;SDS011;30382;48.802;9.388;2022-07-23T07:38:22;7.27;;;6.77;;
44664;SDS011;30382;48.802;9.388;2022-07-23T07:41:06;8.47;;;7.70;;
44664;SDS011;30382;48.802;9.388;2022-07-23T07:43:52;9.53;;;8.83;;
44664;SDS011;30382;48.802;9.388;2022-07-23T07:46:36;9.67;;;8.80;;
44664;SDS011;30382;48.802;9.388;2022-07-23T07:49:20;10.70;;;8.10;;
44664;SDS011;30382;48.802;9.388;2022-07-23T07:52:05;9.30;;;8.00;;
44664;SDS011;30382;48.802;9.388;2022-07-23T07:54:50;9.00;;;8.30;;
44664;SDS011;30382;48.802;9.388;2022-07-23T07:57:34;10.07;;;9.10;;
44664;SDS011;30382;48.802;9.388;2022-07-23T08:00:18;9.20;;;8.30;;
44664;SDS011;30382;48.802;9.388;2022-07-23T08:03:03;8.60;;;7.90;;
44664;SDS011;30382;48.802;9.388;2022-07-23T08:05:48;9.10;;;8.40;;
44664;SDS011;30382;48.802;9.388;2022-07-23T08:08:32;9.60;;;8.80;;
44664;SDS011;30382;48.802;9.388;2022-07-23T08:11:16;8.60;;;7.90;;
44664;SDS011;30382;48.802;9.388;2022-07-23T08:14:00;9.50;;;8.77;;
44664;SDS011;30382;48.802;9.388;2022-07-23T08:16:45;8.30;;;7.60;;
44664;SDS011;30382;48.802;9.388;2022-07-23T08:19:29;9.63;;;8.73;;
44664;SDS011;30382;48.802;9.388;2022-07-23T08:22:13;8.67;;;7.93;;
44664;SDS011;30382;48.802;9.388;2022-07-23T08:24:58;8.60;;;7.90;;
44664;SDS011;30382;48.802;9.388;2022-07-23T08:27:42;8.97;;;8.10;;
44664;SDS011;30382;48.802;9.388;2022-07-23T08:30:29;10.27;;;8.50;;
44664;SDS011;30382;48.802;9.388;2022-07-23T08:33:15;8.73;;;7.93;;
44664;SDS011;30382;48.802;9.388;2022-07-23T08:35:59;9.00;;;8.30;;
44664;SDS011;30382;48.802;9.388;2022-07-23T08:38:44;8.90;;;8.20;;
44664;SDS011;30382;48.802;9.388;2022-07-23T08:41:29;8.20;;;7.60;;
44664;SDS011;30382;48.802;9.388;2022-07-23T08:44:15;9.80;;;8.83;;
44664;SDS011;30382;48.802;9.388;2022-07-23T08:46:59;9.77;;;8.20;;
44664;SDS011;30382;48.802;9.388;2022-07-23T08:49:43;7.83;;;7.23;;
44664;SDS011;30382;48.802;9.388;2022-07-23T08:52:30;8.57;;;7.80;;
44664;SDS011;30382;48.802;9.388;2022-07-23T08:55:16;8.60;;;7.90;;
44664;SDS011;30382;48.802;9.388;2022-07-23T08:58:00;8.77;;;7.97;;
44664;SDS011;30382;48.802;9.388;2022-07-23T09:00:45;8.60;;;8.00;;
44664;SDS011;30382;48.802;9.388;2022-07-23T09:03:33;8.57;;;7.83;;
44664;SDS011;30382;48.802;9.388;2022-07-23T09:06:18;8.57;;;7.77;;
44664;SDS011;30382;48.802;9.388;2022-07-23T09:09:15;8.20;;;7.50;;
44664;SDS011;30382;48.802;9.388;2022-07-23T09:14:47;8.07;;;7.33;;
44664;SDS011;30382;48.802;9.388;2022-07-23T09:17:39;25.43;;;23.70;;
44664;SDS011;30382;48.802;9.388;2022-07-23T09:20:24;7.90;;;7.30;;
44664;SDS011;30382;48.802;9.388;2022-07-23T09:23:08;7.70;;;7.10;;
44664;SDS011;30382;48.802;9.388;2022-07-23T09:25:53;7.60;;;7.00;;
44664;SDS011;30382;48.802;9.388;2022-07-23T09:28:47;8.70;;;7.93;;
44664;SDS011;30382;48.802;9.388;2022-07-23T09:31:32;8.40;;;7.60;;
44664;SDS011;30382;48.802;9.388;2022-07-23T09:37:11;7.40;;;6.65;;
44664;SDS011;30382;48.802;9.388;2022-07-23T09:40:04;7.87;;;7.27;;
44664;SDS011;30382;48.802;9.388;2022-07-23T09:42:55;8.33;;;7.63;;
44664;SDS011;30382;48.802;9.388;2022-07-23T09:45:39;8.57;;;7.90;;
44664;SDS011;30382;48.802;9.388;2022-07-23T09:48:24;7.60;;;7.00;;
44664;SDS011;30382;48.802;9.388;2022-07-23T09:51:08;7.60;;;7.00;;
44664;SDS011;30382;48.802;9.388;2022-07-23T09:53:52;7.47;;;6.97;;
44664;SDS011;30382;48.802;9.388;2022-07-23T09:56:37;8.03;;;7.33;;
44664;SDS011;30382;48.802;9.388;2022-07-23T09:59:34;7.07;;;6.47;;
44664;SDS011;30382;48.802;9.388;2022-07-23T10:02:19;6.70;;;6.20;;
44664;SDS011;30382;48.802;9.388;2022-07-23T10:05:41;6.10;;;5.70;;
44664;SDS011;30382;48.802;9.388;2022-07-23T10:08:46;6.87;;;6.27;;
44664;SDS011;30382;48.802;9.388;2022-07-23T10:12:02;6.60;;;6.10;;
44664;SDS011;30382;48.802;9.388;2022-07-23T10:15:09;6.73;;;6.33;;
44664;SDS011;30382;48.802;9.388;2022-07-23T10:17:53;6.93;;;6.43;;
44664;SDS011;30382;48.802;9.388;2022-07-23T10:20:37;6.97;;;6.47;;
44664;SDS011;30382;48.802;9.388;2022-07-23T10:23:24;6.73;;;6.13;;
44664;SDS011;30382;48.802;9.388;2022-07-23T10:26:12;6.60;;;6.10;;
44664;SDS011;30382;48.802;9.388;2022-07-23T10:35:12;6.40;;;5.90;;
44664;SDS011;30382;48.802;9.388;2022-07-23T10:38:02;7.40;;;6.90;;
44664;SDS011;30382;48.802;9.388;2022-07-23T10:40:58;7.17;;;6.57;;
44664;SDS011;30382;48.802;9.388;2022-07-23T10:43:43;8.47;;;7.77;;
44664;SDS011;30382;48.802;9.388;2022-07-23T10:46:27;6.60;;;6.20;;
44664;SDS011;30382;48.802;9.388;2022-07-23T10:49:32;6.23;;;5.83;;
44664;SDS011;30382;48.802;9.388;2022-07-23T10:52:18;7.13;;;6.63;;
44664;SDS011;30382;48.802;9.388;2022-07-23T10:57:53;5.73;;;5.43;;
44664;SDS011;30382;48.802;9.388;2022-07-23T11:00:38;6.60;;;6.20;;
44664;SDS011;30382;48.802;9.388;2022-07-23T11:03:33;6.70;;;6.07;;
44664;SDS011;30382;48.802;9.388;2022-07-23T11:22:56;6.13;;;5.73;;
44664;SDS011;30382;48.802;9.388;2022-07-23T11:25:40;6.73;;;6.23;;
44664;SDS011;30382;48.802;9.388;2022-07-23T11:28:25;6.50;;;6.00;;
44664;SDS011;30382;48.802;9.388;2022-07-23T11:31:16;6.67;;;6.03;;
44664;SDS011;30382;48.802;9.388;2022-07-23T11:42:33;6.47;;;6.00;;
44664;SDS011;30382;48.802;9.388;2022-07-23T11:45:17;6.73;;;6.27;;
44664;SDS011;30382;48.802;9.388;2022-07-23T11:48:02;7.70;;;7.00;;
44664;SDS011;30382;48.802;9.388;2022-07-23T11:50:46;6.85;;;6.40;;
44664;SDS011;30382;48.802;9.388;2022-07-23T11:53:32;6.80;;;6.30;;
44664;SDS011;30382;48.802;9.388;2022-07-23T11:56:16;7.97;;;7.47;;
44664;SDS011;30382;48.802;9.388;2022-07-23T11:59:01;6.97;;;6.50;;
44664;SDS011;30382;48.802;9.388;2022-07-23T12:01:58;6.05;;;5.65;;
44664;SDS011;30382;48.802;9.388;2022-07-23T12:07:28;7.50;;;7.10;;
44664;SDS011;30382;48.802;9.388;2022-07-23T12:10:14;7.07;;;6.57;;
44664;SDS011;30382;48.802;9.388;2022-07-23T12:13:00;7.20;;;6.80;;
44664;SDS011;30382;48.802;9.388;2022-07-23T12:15:46;7.13;;;6.60;;
44664;SDS011;30382;48.802;9.388;2022-07-23T12:18:31;6.03;;;5.63;;
44664;SDS011;30382;48.802;9.388;2022-07-23T12:21:15;6.95;;;6.32;;
44664;SDS011;30382;48.802;9.388;2022-07-23T12:24:06;6.32;;;6.03;;
44664;SDS011;30382;48.802;9.388;2022-07-23T12:27:07;5.95;;;5.65;;
44664;SDS011;30382;48.802;9.388;2022-07-23T12:29:52;6.65;;;6.25;;
44664;SDS011;30382;48.802;9.388;2022-07-23T12:32:36;6.25;;;5.85;;
44664;SDS011;30382;48.802;9.388;2022-07-23T12:35:30;7.30;;;6.80;;
44664;SDS011;30382;48.802;9.388;2022-07-23T12:38:15;7.03;;;6.53;;
44664;SDS011;30382;48.802;9.388;2022-07-23T12:41:00;6.70;;;6.30;;
44664;SDS011;30382;48.802;9.388;2022-07-23T12:43:45;6.75;;;6.25;;
44664;SDS011;30382;48.802;9.388;2022-07-23T12:46:33;5.90;;;5.60;;
44664;SDS011;30382;48.802;9.388;2022-07-23T12:49:27;5.90;;;5.60;;
44664;SDS011;30382;48.802;9.388;2022-07-23T12:52:15;6.47;;;6.07;;
44664;SDS011;30382;48.802;9.388;2022-07-23T12:54:59;6.07;;;5.78;;
44664;SDS011;30382;48.802;9.388;2022-07-23T12:57:45;7.00;;;6.50;;
44664;SDS011;30382;48.802;9.388;2022-07-23T13:00:30;6.93;;;6.50;;
44664;SDS011;30382;48.802;9.388;2022-07-23T13:03:24;6.30;;;5.90;;
44664;SDS011;30382;48.802;9.388;2022-07-23T13:06:10;7.10;;;6.50;;
44664;SDS011;30382;48.802;9.388;2022-07-23T13:08:55;6.55;;;6.22;;
44664;SDS011;30382;48.802;9.388;2022-07-23T13:11:39;6.80;;;6.40;;
44664;SDS011;30382;48.802;9.388;2022-07-23T13:14:24;7.07;;;6.67;;
44664;SDS011;30382;48.802;9.388;2022-07-23T13:17:08;7.50;;;6.90;;
44664;SDS011;30382;48.802;9.388;2022-07-23T13:19:53;7.10;;;6.60;;
44664;SDS011;30382;48.802;9.388;2022-07-23T13:22:37;7.07;;;6.53;;
44664;SDS011;30382;48.802;9.388;2022-07-23T13:25:21;7.60;;;6.90;;
44664;SDS011;30382;48.802;9.388;2022-07-23T13:28:06;6.67;;;6.13;;
44664;SDS011;30382;48.802;9.388;2022-07-23T13:30:51;7.30;;;6.80;;
44664;SDS011;30382;48.802;9.388;2022-07-23T13:33:35;6.70;;;6.20;;
44664;SDS011;30382;48.802;9.388;2022-07-23T13:36:19;8.13;;;7.63;;
44664;SDS011;30382;48.802;9.388;2022-07-23T13:39:04;8.47;;;7.77;;
44664;SDS011;30382;48.802;9.388;2022-07-23T13:41:48;7.37;;;6.87;;
44664;SDS011;30382;48.802;9.388;2022-07-23T13:44:32;7.28;;;6.88;;
44664;SDS011;30382;48.802;9.388;2022-07-23T13:47:17;7.80;;;7.07;;
44664;SDS011;30382;48.802;9.388;2022-07-23T13:50:01;6.75;;;6.35;;
44664;SDS011;30382;48.802;9.388;2022-07-23T13:52:45;7.10;;;6.55;;
44664;SDS011;30382;48.802;9.388;2022-07-23T13:55:30;7.10;;;6.70;;
44664;SDS011;30382;48.802;9.388;2022-07-23T13:58:15;6.57;;;6.18;;
44664;SDS011;30382;48.802;9.388;2022-07-23T14:00:59;7.05;;;6.65;;
44664;SDS011;30382;48.802;9.388;2022-07-23T14:03:44;7.55;;;7.05;;
44664;SDS011;30382;48.802;9.388;2022-07-23T14:06:28;7.95;;;7.45;;
44664;SDS011;30382;48.802;9.388;2022-07-23T14:20:12;9.17;;;8.53;;
44664;SDS011;30382;48.802;9.388;2022-07-23T14:22:57;7.80;;;7.30;;
44664;SDS011;30382;48.802;9.388;2022-07-23T14:25:45;7.90;;;7.30;;
44664;SDS011;30382;48.802;9.388;2022-07-23T14:28:32;8.40;;;7.70;;
44664;SDS011;30382;48.802;9.388;2022-07-23T14:31:16;9.70;;;9.10;;
44664;SDS011;30382;48.802;9.388;2022-07-23T14:34:00;9.50;;;8.80;;
44664;SDS011;30382;48.802;9.388;2022-07-23T14:36:44;8.97;;;8.40;;
44664;SDS011;30382;48.802;9.388;2022-07-23T14:39:29;8.43;;;7.90;;
44664;SDS011;30382;48.802;9.388;2022-07-23T14:42:13;7.97;;;7.47;;
44664;SDS011;30382;48.802;9.388;2022-07-23T14:44:57;10.03;;;9.43;;
44664;SDS011;30382;48.802;9.388;2022-07-23T14:47:42;8.77;;;8.17;;
44664;SDS011;30382;48.802;9.388;2022-07-23T14:50:26;9.30;;;8.57;;
44664;SDS011;30382;48.802;9.388;2022-07-23T14:53:10;9.10;;;8.50;;
44664;SDS011;30382;48.802;9.388;2022-07-23T14:55:55;8.80;;;8.10;;
44664;SDS011;30382;48.802;9.388;2022-07-23T14:58:41;8.20;;;7.68;;
44664;SDS011;30382;48.802;9.388;2022-07-23T15:01:26;8.32;;;7.72;;
44664;SDS011;30382;48.802;9.388;2022-07-23T15:04:10;8.93;;;8.32;;
44664;SDS011;30382;48.802;9.388;2022-07-23T15:06:55;7.88;;;7.47;;
44664;SDS011;30382;48.802;9.388;2022-07-23T15:09:39;8.13;;;7.72;;
44664;SDS011;30382;48.802;9.388;2022-07-23T15:12:23;9.10;;;8.30;;
44664;SDS011;30382;48.802;9.388;2022-07-23T15:15:08;8.27;;;7.75;;
44664;SDS011;30382;48.802;9.388;2022-07-23T15:17:52;8.00;;;7.43;;
44664;SDS011;30382;48.802;9.388;2022-07-23T15:20:36;7.43;;;7.03;;
44664;SDS011;30382;48.802;9.388;2022-07-23T15:23:21;8.18;;;7.68;;
44664;SDS011;30382;48.802;9.388;2022-07-23T15:26:06;7.70;;;7.13;;
44664;SDS011;30382;48.802;9.388;2022-07-23T15:28:51;8.27;;;7.65;;
44664;SDS011;30382;48.802;9.388;2022-07-23T15:31:35;7.57;;;6.90;;
44664;SDS011;30382;48.802;9.388;2022-07-23T15:34:20;8.20;;;7.60;;
44664;SDS011;30382;48.802;9.388;2022-07-23T15:37:04;9.40;;;8.80;;
44664;SDS011;30382;48.802;9.388;2022-07-23T15:39:51;7.90;;;7.30;;
44664;SDS011;30382;48.802;9.388;2022-07-23T15:42:36;9.00;;;8.40;;
44664;SDS011;30382;48.802;9.388;2022-07-23T15:45:20;8.88;;;8.27;;
44664;SDS011;30382;48.802;9.388;2022-07-23T15:48:05;9.07;;;8.50;;
44664;SDS011;30382;48.802;9.388;2022-07-23T15:50:49;8.37;;;7.83;;
44664;SDS011;30382;48.802;9.388;2022-07-23T15:53:34;9.90;;;9.30;;
44664;SDS011;30382;48.802;9.388;2022-07-23T15:56:18;9.50;;;8.80;;
44664;SDS011;30382;48.802;9.388;2022-07-23T15:59:03;9.47;;;8.80;;
44664;SDS011;30382;48.802;9.388;2022-07-23T16:01:47;9.27;;;8.60;;
44664;SDS011;30382;48.802;9.388;2022-07-23T16:04:32;8.97;;;8.30;;
44664;SDS011;30382;48.802;9.388;2022-07-23T16:07:16;8.30;;;7.80;;
44664;SDS011;30382;48.802;9.388;2022-07-23T16:10:01;8.67;;;8.07;;
44664;SDS011;30382;48.802;9.388;2022-07-23T16:12:45;7.97;;;7.40;;
44664;SDS011;30382;48.802;9.388;2022-07-23T16:15:29;9.40;;;8.80;;
44664;SDS011;30382;48.802;9.388;2022-07-23T16:20:58;8.57;;;8.00;;
44664;SDS011;30382;48.802;9.388;2022-07-23T16:23:42;9.57;;;8.87;;
44664;SDS011;30382;48.802;9.388;2022-07-23T16:26:27;8.40;;;7.80;;
44664;SDS011;30382;48.802;9.388;2022-07-23T16:29:11;11.00;;;8.63;;
44664;SDS011;30382;48.802;9.388;2022-07-23T16:31:55;8.80;;;8.30;;
44664;SDS011;30382;48.802;9.388;2022-07-23T16:34:40;9.53;;;8.90;;
44664;SDS011;30382;48.802;9.388;2022-07-23T16:37:24;10.30;;;9.60;;
44664;SDS011;30382;48.802;9.388;2022-07-23T16:40:10;9.90;;;9.10;;
44664;SDS011;30382;48.802;9.388;2022-07-23T16:42:54;10.37;;;9.60;;
44664;SDS011;30382;48.802;9.388;2022-07-23T16:45:38;10.17;;;9.20;;
44664;SDS011;30382;48.802;9.388;2022-07-23T16:48:22;10.50;;;9.70;;
44664;SDS011;30382;48.802;9.388;2022-07-23T16:51:07;12.10;;;11.00;;
44664;SDS011;30382;48.802;9.388;2022-07-23T16:53:52;10.47;;;9.70;;
44664;SDS011;30382;48.802;9.388;2022-07-23T16:56:39;11.13;;;10.33;;
44664;SDS011;30382;48.802;9.388;2022-07-23T16:59:23;11.03;;;10.23;;
44664;SDS011;30382;48.802;9.388;2022-07-23T17:02:07;10.40;;;9.60;;
44664;SDS011;30382;48.802;9.388;2022-07-23T17:04:52;9.80;;;8.97;;
44664;SDS011;30382;48.802;9.388;2022-07-23T17:07:36;10.03;;;9.33;;
44664;SDS011;30382;48.802;9.388;2022-07-23T17:10:21;9.53;;;8.93;;
44664;SDS011;30382;48.802;9.388;2022-07-23T17:13:05;10.60;;;9.83;;
44664;SDS011;30382;48.802;9.388;2022-07-23T17:15:50;10.23;;;9.53;;
44664;SDS011;30382;48.802;9.388;2022-07-23T17:18:34;10.77;;;9.73;;
44664;SDS011;30382;48.802;9.388;2022-07-23T17:21:19;11.30;;;10.40;;
44664;SDS011;30382;48.802;9.388;2022-07-23T17:24:03;10.80;;;10.10;;
44664;SDS011;30382;48.802;9.388;2022-07-23T17:26:48;11.27;;;10.33;;
44664;SDS011;30382;48.802;9.388;2022-07-23T17:29:33;11.47;;;10.63;;
44664;SDS011;30382;48.802;9.388;2022-07-23T17:32:17;11.03;;;10.13;;